Latest Weather Observations for Norfolk Island

IDN60801

Issued at 11:33 pm EST Monday 25 May 2015 (issued every 30 minutes, with the page automatically refreshed every 10 minutes)

About weather observations | Map of weather stations | Latest weather observations for NSW | Other Formats
Station Details ID: 200288 Name: NORFOLK ISLAND AERO Lat: -29.04 Lon: 167.94 Height: 111.73 m
Data from the previous 72 hours. | See also: Recent months at Norfolk Island
Date/Time
EST
Temp
°C
App
Temp
°C
Dew
Point
Rel
Hum
%
Delta-T
°C
Wind Press
QNH
hPa
Press
MSL
hPa
Rain
since 9 am
mm
Dir
 
Spd
km/h
Gust
km/h
Spd
kts
Gust
kts
25/11:30pm 17.3 13.5 9.7 61 4.0 S 20 32 11 17 1025.6 - 0.0
25/11:00pm 17.8 14.4 10.7 63 3.8 S 19 28 10 15 1025.6 - 0.0
25/10:30pm 16.9 14.0 8.0 55 4.5 S 13 19 7 10 1025.8 1025.6 0.0
25/10:00pm 17.5 14.1 7.6 52 5.0 S 15 20 8 11 1025.8 - 0.0
25/09:30pm 17.6 13.6 8.2 54 4.8 S 19 28 10 15 1025.8 - 0.0
25/09:00pm 17.7 13.6 8.8 56 4.6 S 20 30 11 16 1025.9 - 0.0
25/08:30pm 17.7 13.6 10.0 60 4.1 S 22 33 12 18 1025.7 - 0.0
25/08:00pm 17.9 14.7 11.3 65 3.6 S 19 32 10 17 1025.6 - 0.0
25/07:30pm 17.8 14.3 10.9 64 3.7 S 20 37 11 20 1025.5 1025.3 0.0
25/07:00pm 17.7 14.2 10.2 61 4.0 S 19 26 10 14 1025.3 - 0.0
25/06:30pm 18.0 13.3 9.4 57 4.5 S 24 37 13 20 1025.0 - 0.0
25/06:00pm 18.2 14.7 11.0 63 3.9 S 20 30 11 16 1025.1 - 0.0
25/05:30pm 18.1 14.5 10.4 60 4.1 S 20 30 11 16 1024.8 - 0.0
25/05:00pm 17.8 13.8 10.5 62 3.9 S 22 32 12 17 1024.6 - 0.0
25/04:30pm 18.2 13.1 7.8 50 5.3 S 24 32 13 17 1024.4 1024.1 0.0
25/04:00pm 18.1 13.9 9.6 57 4.5 S 22 35 12 19 1024.3 - 0.0
25/03:30pm 18.5 13.6 10.1 58 4.5 SSW 26 39 14 21 1024.3 - 0.0
25/03:00pm 19.0 13.2 8.1 49 5.6 SW 28 41 15 22 1024.2 - 0.0
25/02:30pm 18.7 13.6 10.5 59 4.4 S 28 37 15 20 1024.4 - 0.0
25/02:00pm 19.5 13.7 10.9 57 4.7 SSW 32 44 17 24 1024.3 - 0.0
25/01:30pm 19.4 14.8 9.6 53 5.2 SSW 24 33 13 18 1024.2 1023.9 0.0
25/01:00pm 18.9 14.6 12.0 64 3.8 S 26 35 14 19 1024.1 - 0.0
25/12:30pm 19.8 14.4 8.2 47 6.0 SSW 26 39 14 21 1023.7 - 0.0
25/12:00pm 19.9 17.0 12.2 61 4.3 S 19 30 10 16 1023.8 - 0.0
25/11:30am 19.4 14.5 11.2 59 4.5 SSW 28 39 15 21 1024.1 - 0.0
25/11:00am 19.9 15.2 10.5 54 5.1 SSW 26 39 14 21 1024.4 - 0.0
25/10:30am 20.0 14.2 8.0 46 6.2 SSW 28 39 15 21 1024.8 1024.5 0.0
25/10:00am 20.0 14.3 8.3 47 6.1 SSW 28 46 15 25 1025.0 - 0.0
25/09:30am 19.9 14.8 9.3 50 5.6 SSW 26 44 14 24 1025.1 - 0.0
25/09:00am 19.7 14.0 8.3 47 5.9 SSW 28 41 15 22 1025.4 - 0.0
25/08:30am 19.7 14.8 8.6 48 5.8 SSW 24 35 13 19 1025.3 - 0.0
25/08:00am 18.8 13.7 9.1 53 5.1 SSW 26 37 14 20 1025.0 - 0.0
25/07:30am 18.7 14.0 9.4 54 4.9 SSW 24 35 13 19 1025.0 1024.7 1.0
25/07:00am 18.4 13.6 9.0 54 4.9 SSW 24 35 13 19 1024.8 - 1.0
25/06:30am 18.1 14.5 10.0 59 4.3 SSW 19 28 10 15 1024.7 - 1.0
25/06:00am 18.0 13.1 7.0 48 5.5 SSW 22 33 12 18 1024.5 - 1.0
25/05:30am 17.9 12.4 7.6 51 5.2 SW 26 35 14 19 1024.4 - 1.0
25/05:00am 17.7 13.6 10.2 61 4.0 S 22 35 12 19 1024.0 - 1.0
25/04:30am 17.7 14.6 11.5 67 3.4 SSW 19 33 10 18 1023.7 1023.4 1.0
25/04:00am 17.5 13.6 9.5 59 4.2 SSW 20 32 11 17 1023.3 - 1.0
25/03:30am 17.2 14.3 10.9 66 3.4 SSW 17 24 9 13 1022.9 - 1.0
25/03:00am 16.5 14.2 10.3 67 3.3 SSW 13 20 7 11 1022.9 - 1.0
25/02:30am 17.0 13.8 9.8 62 3.8 SSW 17 22 9 12 1023.2 - 1.0
25/02:00am 17.5 13.4 8.8 56 4.5 SSW 20 30 11 16 1023.2 - 1.0
25/01:30am 17.4 13.3 8.7 56 4.5 SSW 20 28 11 15 1023.2 1022.9 1.0
25/01:00am 17.6 13.9 9.6 59 4.2 SSW 19 30 10 16 1023.3 - 1.0
25/12:30am 16.7 14.4 10.5 67 3.3 S 13 20 7 11 1023.4 - 1.0
25/12:00am 16.9 13.7 10.1 64 3.6 S 17 26 9 14 1023.4 - 1.0
 
Date/Time
EST
Temp
°C
App
Temp
°C
Dew
Point
Rel
Hum
%
Delta-T
°C
Wind Press
QNH
hPa
Press
MSL
hPa
Rain
since 9 am
mm
Dir
 
Spd
km/h
Gust
km/h
Spd
kts
Gust
kts
24/11:30pm 17.7 13.5 8.4 54 4.8 SSW 20 30 11 16 1023.2 - 1.0
24/11:00pm 17.2 13.8 9.1 59 4.2 SSW 17 26 9 14 1023.1 - 1.0
24/10:30pm 17.6 13.5 8.7 56 4.6 SSW 20 32 11 17 1023.1 1022.8 1.0
24/10:00pm 17.8 13.8 9.2 57 4.5 S 20 32 11 17 1022.9 - 1.0
24/09:30pm 17.6 13.9 9.4 58 4.3 S 19 28 10 15 1022.8 - 1.0
24/09:00pm 17.8 13.6 9.9 60 4.2 SSW 22 30 12 16 1022.7 - 1.0
24/08:30pm 17.7 13.3 10.4 62 3.9 SSW 24 32 13 17 1022.7 - 1.0
24/08:00pm 17.9 14.2 10.0 60 4.2 SSW 20 30 11 16 1022.6 - 1.0
24/07:30pm 17.5 13.2 9.5 59 4.2 SSW 22 30 12 16 1022.6 1022.4 1.0
24/07:00pm 17.7 13.1 9.7 59 4.2 S 24 32 13 17 1022.3 - 1.0
24/06:30pm 17.6 13.2 10.3 62 3.9 S 24 33 13 18 1022.0 - 1.0
24/06:00pm 17.4 14.8 10.7 65 3.6 SSW 15 24 8 13 1021.8 - 1.0
24/05:30pm 17.5 14.1 10.4 63 3.8 SSW 19 32 10 17 1021.5 - 1.0
24/05:00pm 17.4 13.8 10.0 62 3.9 SSW 19 32 10 17 1021.3 - 1.0
24/04:30pm 17.6 13.7 9.4 58 4.3 SSW 20 30 11 16 1021.0 1020.8 1.0
24/04:00pm 17.6 13.7 10.9 65 3.6 SSW 22 39 12 21 1020.7 - 1.0
24/03:30pm 18.1 14.0 10.2 60 4.2 SSW 22 33 12 18 1020.3 - 1.0
24/03:00pm 18.0 13.6 10.3 60 4.1 SSW 24 35 13 19 1020.0 - 1.0
24/02:30pm 18.4 15.1 11.0 62 4.0 SSW 19 30 10 16 1019.8 - 1.0
24/02:00pm 17.4 14.4 12.1 71 2.9 SW 19 28 10 15 1019.8 - 1.0
24/01:38pm 17.7 13.4 13.1 74 2.6 SSW 28 35 15 19 1019.6 - 1.0
24/01:30pm 16.1 15.4 13.1 82 1.7 WSW 9 15 5 8 1019.7 1019.5 1.0
24/01:00pm 18.9 14.9 10.6 58 4.5 SW 22 30 12 16 1019.2 - 0.2
24/12:30pm 19.5 15.7 11.3 59 4.5 SW 22 30 12 16 1019.2 - 0.2
24/12:00pm 19.8 14.5 8.3 47 6.0 S 26 39 14 21 1019.2 - 0.2
24/11:30am 19.7 15.3 7.6 45 6.2 SSW 20 39 11 21 1019.3 - 0.2
24/11:00am 19.3 14.6 9.3 52 5.3 S 24 39 13 21 1019.6 - 0.2
24/10:35am 19.1 13.7 9.5 53 5.1 SSW 28 46 15 25 1019.9 - 0.0
24/10:30am 19.3 14.7 9.5 53 5.2 SSW 24 37 13 20 1019.9 1019.7 0.0
24/10:00am 19.6 14.6 9.4 51 5.4 SSW 26 35 14 19 1020.1 - 0.0
24/09:30am 19.3 14.4 8.3 49 5.7 SSW 24 32 13 17 1020.1 - 0.0
24/09:00am 18.8 13.3 7.6 48 5.7 SSW 26 35 14 19 1020.1 - 0.0
24/08:30am 18.6 12.9 6.6 45 6.0 SW 26 35 14 19 1019.9 - 0.0
24/08:00am 18.3 12.2 4.8 41 6.5 SSW 26 35 14 19 1019.6 - 0.0
24/07:30am 18.2 12.8 7.8 50 5.3 SSW 26 41 14 22 1019.4 1019.2 1.4
24/07:00am 17.9 12.0 5.6 44 6.0 SSW 26 37 14 20 1019.1 - 1.4
24/06:30am 17.6 11.6 8.5 55 4.7 S 30 39 16 21 1018.5 - 1.4
24/06:00am 17.5 12.4 9.3 58 4.3 SSW 26 35 14 19 1018.0 - 1.4
24/05:30am 17.0 13.4 10.4 65 3.5 S 20 37 11 20 1017.6 - 1.4
24/05:00am 16.8 12.6 11.1 69 3.1 WSW 24 39 13 21 1017.1 - 1.4
24/04:30am 17.3 13.0 7.9 54 4.8 SSW 20 35 11 19 1016.6 1016.3 1.4
24/04:00am 17.2 11.9 7.0 51 5.1 S 24 33 13 18 1016.2 - 1.4
24/03:30am 17.0 11.9 6.0 48 5.4 S 22 33 12 18 1016.1 - 1.4
24/03:00am 17.4 10.1 4.3 42 6.2 SSW 32 43 17 23 1015.8 - 1.4
24/02:30am 17.3 11.3 6.9 50 5.2 S 28 39 15 21 1015.5 - 1.4
24/02:10am 17.4 12.0 9.4 59 4.2 S 28 48 15 26 1015.4 - 1.4
24/02:00am 17.3 11.3 6.9 50 5.2 S 28 39 15 21 1015.3 - 1.4
24/01:39am 17.3 10.8 4.5 42 6.1 S 28 48 15 26 1015.2 - 1.4
24/01:30am 17.1 10.9 6.1 48 5.4 SSW 28 41 15 22 1015.3 1015.0 1.4
24/01:21am 17.1 11.0 6.4 49 5.3 SSW 28 46 15 25 1015.3 - 1.4
24/01:00am 17.1 9.9 6.1 48 5.4 SSW 33 43 18 23 1015.2 - 1.4
24/12:30am 17.5 11.0 8.1 54 4.8 SSW 32 50 17 27 1015.0 - 1.4
24/12:03am 17.6 12.4 10.3 62 3.9 S 28 48 15 26 1014.7 - 1.4
24/12:00am 17.6 13.6 10.5 63 3.8 S 22 39 12 21 1014.7 - 1.4
 
Date/Time
EST
Temp
°C
App
Temp
°C
Dew
Point
Rel
Hum
%
Delta-T
°C
Wind Press
QNH
hPa
Press
MSL
hPa
Rain
since 9 am
mm
Dir
 
Spd
km/h
Gust
km/h
Spd
kts
Gust
kts
23/11:30pm 16.6 12.3 12.1 75 2.5 S 26 39 14 21 1014.8 - 1.4
23/11:00pm 16.4 11.4 12.2 76 2.3 S 30 41 16 22 1014.6 - 1.4
23/10:30pm 17.1 11.8 11.4 69 3.1 S 30 43 16 23 1014.5 1014.2 1.4
23/10:00pm 17.2 12.0 12.7 75 2.5 S 32 44 17 24 1014.1 - 1.2
23/09:30pm 17.7 11.9 11.5 67 3.4 S 33 46 18 25 1013.6 - 1.2
23/09:00pm 17.6 11.6 12.0 69 3.1 SSW 35 56 19 30 1013.2 - 1.2
23/08:57pm 17.6 12.1 12.0 69 3.1 SSW 32 56 17 30 1013.3 - 1.2
23/08:38pm 16.3 11.1 13.5 83 1.6 SSW 33 61 18 33 1013.2 - 1.0
23/08:30pm 17.3 12.7 12.4 73 2.7 SSW 28 54 15 29 1012.9 - 0.8
23/08:00pm 17.3 12.2 13.2 77 2.3 SSW 32 52 17 28 1012.8 - 0.8
23/07:30pm 18.1 12.6 12.6 70 3.1 SSW 33 52 18 28 1012.4 1012.2 0.6
23/07:04pm 18.0 12.9 13.8 76 2.4 SSW 33 52 18 28 1012.2 - 0.6
23/07:00pm 18.0 12.0 13.4 74 2.6 SSW 37 52 20 28 1012.2 - 0.6
23/06:30pm 17.1 11.4 14.3 83 1.6 S 37 56 20 30 1011.6 - 0.6
23/06:20pm 17.7 12.9 14.0 79 2.1 SSW 32 52 17 28 1011.4 - 0.6
23/06:07pm 18.3 13.8 13.8 75 2.6 SW 30 48 16 26 1011.1 - 0.2
23/06:00pm 17.7 12.7 13.9 78 2.2 SW 33 50 18 27 1011.0 - 0.2
23/05:49pm 17.7 12.1 14.4 81 1.9 SSW 37 57 20 31 1010.9 - 0.2
23/05:43pm 18.3 12.1 13.8 75 2.6 SSW 39 52 21 28 1010.7 - 0.2
23/05:30pm 18.3 13.3 14.0 76 2.5 SW 33 52 18 28 1010.4 - 0.2
23/05:00pm 18.2 12.0 13.8 75 2.5 WSW 39 52 21 28 1009.8 - 0.2
23/04:30pm 18.9 11.5 13.1 69 3.3 WSW 44 63 24 34 1009.3 1009.0 0.2
23/04:08pm 19.0 11.6 13.0 68 3.4 WSW 44 67 24 36 1008.9 - 0.2
23/04:00pm 18.9 11.9 12.5 66 3.6 WSW 41 57 22 31 1008.8 - 0.2
23/03:30pm 18.7 12.0 13.3 71 3.1 WSW 41 59 22 32 1008.3 - 0.2
23/03:00pm 19.2 10.9 12.7 66 3.7 WSW 48 67 26 36 1007.9 - 0.2
23/02:32pm 19.5 12.2 12.8 65 3.8 WSW 43 61 23 33 1007.5 - 0.2
23/02:30pm 19.4 12.1 12.9 66 3.7 WSW 43 59 23 32 1007.4 - 0.2
23/02:00pm 20.1 13.0 13.3 65 3.9 WSW 43 61 23 33 1007.3 - 0.2
23/01:37pm 20.0 12.6 12.6 62 4.2 WSW 43 61 23 33 1007.3 - 0.2
23/01:30pm 20.1 12.4 12.1 60 4.5 WSW 44 61 24 33 1007.2 1006.9 0.2
23/01:03pm 19.7 12.4 12.8 64 3.9 WSW 43 67 23 36 1007.0 - 0.2
23/01:00pm 19.7 12.3 13.0 65 3.8 WSW 44 59 24 32 1007.0 - 0.2
23/12:30pm 19.4 13.0 15.5 78 2.3 WSW 43 63 23 34 1006.6 - 0.2
23/12:09pm 18.6 12.4 16.3 86 1.4 W 44 63 24 34 1006.7 - 0.2
23/12:00pm 21.2 14.4 14.8 67 3.8 W 44 61 24 33 1006.5 - 0.0
23/11:30am 21.3 13.5 14.1 63 4.2 W 48 70 26 38 1006.7 - 0.0
23/11:00am 19.7 12.3 15.3 76 2.6 W 48 69 26 37 1007.0 - 0.0
23/10:30am 21.8 13.7 14.3 62 4.4 W 50 69 27 37 1007.1 1006.8 0.0
23/10:18am 22.0 14.7 14.6 63 4.4 W 46 65 25 35 1007.3 - 0.0
23/10:00am 21.8 13.5 13.7 60 4.7 W 50 65 27 35 1007.4 - 0.0
23/09:35am 21.7 15.3 14.4 63 4.3 W 41 61 22 33 1007.6 - 0.0
23/09:30am 21.7 15.2 15.0 65 4.0 W 43 57 23 31 1007.7 - 0.0
23/09:04am 21.4 15.4 14.4 64 4.1 W 39 59 21 32 1007.8 - 0.0
23/09:00am 21.4 16.5 15.4 68 3.6 W 35 52 19 28 1007.9 - 0.0
23/08:44am 21.0 15.3 15.1 69 3.5 W 39 57 21 31 1007.9 - 0.0
23/08:30am 21.1 15.8 15.4 70 3.4 W 37 54 20 29 1008.0 - 0.0
23/08:00am 20.2 15.0 15.5 74 2.8 WNW 37 57 20 31 1008.0 - 0.0
23/07:41am 19.9 14.3 15.5 76 2.6 WNW 39 57 21 31 1007.9 - 0.0
23/07:30am 19.7 14.2 15.7 78 2.4 W 39 56 21 30 1008.0 1007.7 4.2
23/07:13am 19.7 16.4 16.9 84 1.7 WNW 30 48 16 26 1008.0 - 4.2
23/07:00am 19.3 15.7 16.3 83 1.8 WNW 30 44 16 24 1007.8 - 4.2
23/06:44am 19.0 14.8 15.6 80 2.0 WNW 32 50 17 27 1007.7 - 4.2
23/06:30am 18.6 14.6 15.2 80 2.0 WNW 30 39 16 21 1007.6 - 4.2
23/06:09am 18.5 14.4 16.0 85 1.5 W 32 50 17 27 1007.7 - 4.0
23/06:00am 18.7 13.5 15.5 81 1.9 W 37 54 20 29 1007.7 - 3.8
23/05:36am 19.5 15.9 17.2 86 1.4 W 32 50 17 27 1007.4 - 3.6
23/05:30am 19.4 16.3 17.4 88 1.2 W 30 41 16 22 1007.1 - 3.6
23/05:16am 19.1 16.9 17.8 92 0.8 W 26 35 14 19 1007.1 - 3.6
23/05:14am 19.1 17.0 18.0 93 0.7 W 26 35 14 19 1007.0 - 3.6
23/05:00am 19.0 16.5 18.0 94 0.6 W 28 37 15 20 1006.9 - 3.6
23/04:46am 19.3 14.8 18.2 93 0.7 W 39 52 21 28 1006.7 - 3.4
23/04:40am 20.0 13.6 18.6 92 0.9 WNW 50 72 27 39 1006.5 - 3.4
23/04:30am 20.3 17.3 18.7 90 1.0 NW 32 61 17 33 1005.8 1005.5 3.4
23/04:17am 20.3 17.9 19.2 93 0.7 NNW 30 56 16 30 1005.7 - 3.4
23/04:06am 20.6 17.9 19.3 92 0.8 NNW 32 56 17 30 1005.8 - 2.2
23/04:04am 20.7 17.3 19.1 90 1.0 NNW 35 61 19 33 1005.6 - 2.0
23/04:00am 20.8 17.4 19.1 90 1.1 NNW 35 65 19 35 1005.6 - 2.0
23/03:42am 20.7 18.2 18.8 89 1.2 NNW 30 54 16 29 1005.6 - 1.8
23/03:37am 20.8 18.7 18.9 89 1.2 NNW 28 54 15 29 1005.7 - 1.8
23/03:30am 21.0 19.1 18.6 86 1.5 NNW 26 52 14 28 1006.0 - 1.8
23/03:27am 21.1 18.9 18.6 86 1.6 NNW 28 52 15 28 1006.0 - 1.8
23/03:07am 20.9 18.0 18.8 88 1.3 NNW 32 52 17 28 1006.2 - 1.8
23/03:06am 20.9 18.0 18.8 88 1.3 NNW 32 52 17 28 1006.2 - 1.8
23/03:00am 20.8 17.9 18.9 89 1.2 NNW 32 63 17 34 1006.2 - 1.8
23/02:41am 20.7 18.5 18.8 89 1.2 NNW 28 48 15 26 1006.9 - 1.8
23/02:37am 21.0 18.8 18.6 86 1.5 NNW 28 48 15 26 1006.9 - 1.8
23/02:30am 21.0 19.5 18.6 86 1.5 NNW 24 46 13 25 1007.1 - 1.8
23/02:04am 20.9 19.5 18.8 88 1.3 NNW 24 44 13 24 1007.6 - 1.8
23/02:00am 21.0 18.8 18.6 86 1.5 NNW 28 57 15 31 1007.6 - 1.8
23/01:30am 20.8 19.5 19.1 90 1.1 NNW 24 43 13 23 1008.3 1008.0 1.8
23/01:00am 21.0 19.3 18.9 88 1.3 NNW 26 46 14 25 1008.9 - 1.8
23/12:54am 21.0 19.3 18.9 88 1.3 NW 26 46 14 25 1009.0 - 1.8
23/12:45am 20.9 18.8 19.0 89 1.2 NNW 28 50 15 27 1009.1 - 1.8
23/12:30am 20.8 19.4 18.9 89 1.2 NNW 24 48 13 26 1009.4 - 1.8
23/12:00am 20.5 19.5 18.9 90 1.0 NNW 22 43 12 23 1009.6 - 1.8
 
Date/Time
EST
Temp
°C
App
Temp
°C
Dew
Point
Rel
Hum
%
Delta-T
°C
Wind Press
QNH
hPa
Press
MSL
hPa
Rain
since 9 am
mm
Dir
 
Spd
km/h
Gust
km/h
Spd
kts
Gust
kts
22/11:30pm 19.9 19.2 18.6 92 0.8 NNW 20 35 11 19 1010.1 - 1.8
22/11:00pm 19.6 18.6 18.0 90 1.0 NNW 20 35 11 19 1010.7 - 1.8
22/10:30pm 19.5 18.6 17.7 89 1.1 NNW 19 28 10 15 1010.9 1010.7 1.8
22/10:03pm 19.8 18.6 18.4 92 0.9 NNW 22 39 12 21 1011.4 - 1.6
22/10:02pm 19.9 18.7 18.5 92 0.9 NNW 22 39 12 21 1011.3 - 1.6

Other Formats:

Comma delimited format used in spreadsheet applications
http://www.bom.gov.au/fwo/IDN60801/IDN60801.94996.axf

JavaScript Object Notation format (JSON) in row-major order
http://www.bom.gov.au/fwo/IDN60801/IDN60801.94996.json